createdAt,value
2023-02-11T00:00:13.922Z,0.90
2023-02-11T00:05:17.580Z,1.40
2023-02-11T00:10:21.209Z,1.40
2023-02-11T00:15:26.562Z,1.42
2023-02-11T00:20:30.167Z,1.47
2023-02-11T00:25:33.998Z,1.02
2023-02-11T00:30:39.775Z,1.40
2023-02-11T00:35:43.503Z,1.80
2023-02-11T00:40:47.160Z,1.80
2023-02-11T00:45:52.670Z,2.05
2023-02-11T00:50:56.530Z,2.30
2023-02-11T00:56:00.225Z,2.00
2023-02-11T01:01:06.024Z,1.60
2023-02-11T01:06:14.640Z,2.17
2023-02-11T01:11:38.680Z,1.63
2023-02-11T01:16:44.255Z,1.77
2023-02-11T01:21:47.880Z,2.13
2023-02-11T01:26:51.499Z,2.20
2023-02-11T01:31:56.789Z,2.00
2023-02-11T01:37:01.221Z,2.13
2023-02-11T01:42:05.109Z,2.33
2023-02-11T01:47:10.693Z,1.75
2023-02-11T01:52:18.205Z,2.00
2023-02-11T01:57:24.692Z,2.05
2023-02-11T02:02:37.591Z,1.88
2023-02-11T02:07:48.026Z,2.03
2023-02-11T02:12:51.646Z,2.08
2023-02-11T02:18:10.367Z,1.70
2023-02-11T02:23:36.266Z,2.05
2023-02-11T02:29:14.837Z,2.20
2023-02-11T02:34:28.571Z,1.90
2023-02-11T02:39:36.324Z,2.10
2023-02-11T02:44:40.006Z,2.00
2023-02-11T02:49:45.353Z,2.00
2023-02-11T02:55:25.563Z,1.83
2023-02-11T03:00:36.462Z,2.05
2023-02-11T03:05:50.828Z,2.40
2023-02-11T03:10:56.343Z,2.38
2023-02-11T03:16:03.939Z,1.83
2023-02-11T03:21:10.824Z,1.83
2023-02-11T03:26:22.443Z,2.30
2023-02-11T03:31:34.892Z,2.38
2023-02-11T03:36:45.458Z,2.30
2023-02-11T03:41:50.697Z,2.05
2023-02-11T03:46:56.554Z,2.47
2023-02-11T03:52:04.088Z,2.33
2023-02-11T03:57:07.827Z,2.17
2023-02-11T04:02:11.481Z,2.00
2023-02-11T04:07:16.764Z,2.05
2023-02-11T04:12:20.536Z,2.03
2023-02-11T04:17:24.426Z,2.17
2023-02-11T04:22:30.285Z,1.70
2023-02-11T04:27:34.849Z,2.17
2023-02-11T04:32:38.516Z,1.77
2023-02-11T04:37:43.876Z,1.95
2023-02-11T04:42:47.509Z,2.03
2023-02-11T04:47:51.206Z,2.15
2023-02-11T04:52:56.537Z,2.03
2023-02-11T04:58:00.281Z,2.00
2023-02-11T05:03:03.944Z,2.35
2023-02-11T05:08:09.724Z,1.70
2023-02-11T05:13:13.347Z,2.05
2023-02-11T05:18:16.993Z,2.28
2023-02-11T05:23:22.287Z,1.95
2023-02-11T05:28:26.157Z,1.85
2023-02-11T05:33:29.922Z,1.73
2023-02-11T05:38:35.367Z,1.80
2023-02-11T05:43:39.167Z,1.50
2023-02-11T05:48:42.818Z,2.03
2023-02-11T05:53:48.096Z,1.48
2023-02-11T05:58:51.714Z,1.85
2023-02-11T06:03:55.383Z,1.23
2023-02-11T06:09:00.689Z,1.63
2023-02-11T06:14:04.392Z,1.38
2023-02-11T06:19:08.031Z,1.70
2023-02-11T06:24:13.609Z,1.27
2023-02-11T06:29:17.265Z,1.63
2023-02-11T06:34:20.896Z,1.55
2023-02-11T06:39:26.180Z,1.67
2023-02-11T06:44:29.840Z,1.65
2023-02-11T06:49:33.621Z,1.40
2023-02-11T06:54:39.063Z,1.63
2023-02-11T06:59:42.917Z,1.57
2023-02-11T07:04:46.537Z,1.42
2023-02-11T07:09:52.508Z,1.30
2023-02-11T07:14:57.397Z,1.38
2023-02-11T07:20:01.053Z,1.30
2023-02-11T07:25:07.595Z,1.63
2023-02-11T07:30:12.714Z,1.77
2023-02-11T07:35:16.456Z,1.67
2023-02-11T07:40:22.635Z,1.83
2023-02-11T07:45:26.254Z,1.77
2023-02-11T07:50:30.057Z,1.25
2023-02-11T07:55:35.338Z,1.58
2023-02-11T08:00:39.055Z,1.50
2023-02-11T08:05:42.682Z,2.10
2023-02-11T08:10:48.068Z,1.60
2023-02-11T08:15:51.975Z,1.50
2023-02-11T08:20:55.828Z,1.98
2023-02-11T08:26:04.628Z,1.80
2023-02-11T08:31:09.715Z,1.33
2023-02-11T08:36:15.078Z,1.40
2023-02-11T08:41:20.347Z,1.20
2023-02-11T08:46:24.020Z,1.70
2023-02-11T08:51:29.658Z,1.73
2023-02-11T08:56:34.904Z,1.20
2023-02-11T09:01:39.495Z,1.55
2023-02-11T09:06:43.304Z,1.17
2023-02-11T09:11:48.608Z,1.35
2023-02-11T09:16:52.599Z,1.40
2023-02-11T09:21:57.028Z,1.38
2023-02-11T09:27:02.331Z,1.33
2023-02-11T09:32:08.623Z,1.27
2023-02-11T09:37:13.405Z,1.45
2023-02-11T09:42:44.693Z,1.83
2023-02-11T09:47:51.715Z,1.80
2023-02-11T09:53:01.569Z,1.80
2023-02-11T09:58:12.741Z,1.60
2023-02-11T10:03:45.364Z,1.30
2023-02-11T10:09:00.231Z,1.70
2023-02-11T10:14:20.198Z,1.25
2023-02-11T10:19:46.907Z,1.00
2023-02-11T10:24:54.704Z,1.52
2023-02-11T10:30:05.097Z,1.35
2023-02-11T10:35:17.832Z,1.55
2023-02-11T10:40:23.196Z,1.40
2023-02-11T10:45:32.937Z,1.40
2023-02-11T10:50:36.748Z,1.27
2023-02-11T10:55:50.025Z,1.30
2023-02-11T11:00:59.081Z,1.02
2023-02-11T11:06:04.701Z,0.80
2023-02-11T11:11:10.024Z,1.20
2023-02-11T11:16:24.217Z,1.48
2023-02-11T11:21:34.112Z,1.38
2023-02-11T11:26:43.249Z,1.30
2023-02-11T11:31:56.629Z,0.70
2023-02-11T11:37:01.672Z,0.77
2023-02-11T11:42:23.172Z,0.93
2023-02-11T11:47:40.272Z,0.98
2023-02-11T11:52:52.133Z,1.00
2023-02-11T11:57:55.781Z,0.68
2023-02-11T12:03:31.032Z,0.80
2023-02-11T12:08:49.455Z,0.75
2023-02-11T12:14:10.888Z,0.80
2023-02-11T12:19:45.405Z,1.08
2023-02-11T12:25:06.325Z,0.77
2023-02-11T12:30:27.843Z,0.60
2023-02-11T12:35:40.598Z,0.82
2023-02-11T12:40:54.306Z,0.65
2023-02-11T12:46:13.309Z,0.68
2023-02-11T12:51:27.907Z,0.50
2023-02-11T12:56:38.427Z,0.77
2023-02-11T13:01:44.256Z,0.40
2023-02-11T13:06:53.154Z,0.55
2023-02-11T13:12:03.072Z,0.63
2023-02-11T13:17:15.780Z,0.40
2023-02-11T13:22:24.954Z,0.40
2023-02-11T13:27:41.495Z,0.40
2023-02-11T13:33:18.646Z,0.43
2023-02-11T13:43:30.483Z,0.30
2023-02-11T13:48:36.922Z,0.40
2023-02-11T13:58:53.323Z,0.52
2023-02-11T14:04:20.639Z,1.10
2023-02-11T14:09:44.843Z,0.50
2023-02-11T14:15:19.374Z,0.77
2023-02-11T14:20:44.167Z,0.70
2023-02-11T14:26:00.746Z,0.80
2023-02-11T14:36:29.553Z,1.25
2023-02-11T14:41:39.503Z,0.95
2023-02-11T14:46:48.619Z,1.10
2023-02-11T14:51:53.415Z,0.80
2023-02-11T14:57:12.484Z,0.93
2023-02-11T15:02:24.398Z,1.10
2023-02-11T15:07:28.155Z,1.50
2023-02-11T15:12:31.780Z,1.30
2023-02-11T15:17:37.804Z,1.63
2023-02-11T15:22:41.477Z,2.10
2023-02-11T15:27:50.344Z,1.60
2023-02-11T15:32:57.229Z,1.60
2023-02-11T15:38:01.698Z,1.83
2023-02-11T15:43:06.687Z,1.80
2023-02-11T15:48:16.730Z,1.40
2023-02-11T15:53:26.178Z,1.05
2023-02-11T15:58:29.958Z,1.40
2023-02-11T16:03:35.233Z,1.20
2023-02-11T16:08:38.890Z,1.10
2023-02-11T16:13:47.413Z,1.25
2023-02-11T16:19:04.338Z,1.13
2023-02-11T16:24:18.712Z,1.27
2023-02-11T16:29:26.687Z,1.30
2023-02-11T16:34:32.005Z,1.15
2023-02-11T16:39:35.745Z,1.23
2023-02-11T16:44:39.699Z,0.93
2023-02-11T16:49:45.734Z,1.20
2023-02-11T16:54:49.383Z,1.00
2023-02-11T16:59:53.470Z,1.10
2023-02-11T17:05:01.159Z,0.93
2023-02-11T17:10:04.970Z,1.20
2023-02-11T17:15:09.399Z,1.00
2023-02-11T17:20:16.209Z,0.50
2023-02-11T17:25:20.256Z,0.70
2023-02-11T17:30:24.009Z,0.80
2023-02-11T17:35:29.341Z,0.50
2023-02-11T17:40:33.008Z,0.57
2023-02-11T17:45:41.500Z,0.70
2023-02-11T17:50:46.882Z,0.90
2023-02-11T17:55:50.835Z,1.58
2023-02-11T18:00:58.487Z,1.70
2023-02-11T18:06:05.708Z,1.67
2023-02-11T18:11:11.347Z,1.20
2023-02-11T18:16:14.964Z,1.13
2023-02-11T18:21:22.203Z,1.48
2023-02-11T18:26:26.236Z,1.13
2023-02-11T18:31:30.006Z,1.05
2023-02-11T18:36:35.908Z,1.10
2023-02-11T18:41:39.512Z,1.00
2023-02-11T18:46:43.116Z,1.30
2023-02-11T18:51:48.741Z,1.17
2023-02-11T18:56:52.367Z,1.27
2023-02-11T19:01:55.965Z,1.10
2023-02-11T19:07:01.240Z,0.90
2023-02-11T19:12:05.278Z,1.02
2023-02-11T19:17:09.354Z,1.10
2023-02-11T19:22:14.820Z,0.90
2023-02-11T19:27:18.431Z,1.17
2023-02-11T19:32:22.024Z,0.82
2023-02-11T19:37:27.304Z,1.00
2023-02-11T19:42:30.943Z,1.00
2023-02-11T19:47:34.546Z,0.90
2023-02-11T19:52:40.887Z,1.55
2023-02-11T19:57:44.551Z,1.40
2023-02-11T20:02:48.893Z,1.20
2023-02-11T20:07:54.210Z,1.30
2023-02-11T20:12:57.893Z,1.00
2023-02-11T20:18:01.533Z,1.35
2023-02-11T20:23:06.790Z,1.30
2023-02-11T20:28:10.432Z,1.47
2023-02-11T20:33:14.036Z,1.60
2023-02-11T20:38:19.308Z,1.50
2023-02-11T20:43:23.122Z,1.07
2023-02-11T20:48:26.736Z,1.20
2023-02-11T20:53:32.226Z,1.42
2023-02-11T20:58:36.695Z,1.27
2023-02-11T21:03:40.435Z,1.10
2023-02-11T21:08:47.230Z,1.42
2023-02-11T21:13:50.893Z,1.38
2023-02-11T21:18:54.493Z,1.35
2023-02-11T21:23:59.891Z,1.13
2023-02-11T21:29:03.718Z,1.00
2023-02-11T21:34:08.234Z,0.93
2023-02-11T21:39:13.570Z,0.93
2023-02-11T21:44:17.236Z,0.80
2023-02-11T21:49:20.888Z,1.10
2023-02-11T21:54:26.160Z,0.95
2023-02-11T21:59:30.146Z,1.13
2023-02-11T22:04:33.791Z,0.80
2023-02-11T22:09:39.667Z,1.00
2023-02-11T22:14:43.423Z,1.10
2023-02-11T22:19:47.159Z,1.10
2023-02-11T22:24:52.566Z,1.35
2023-02-11T22:29:56.216Z,1.00
2023-02-11T22:41:11.519Z,1.35
2023-02-11T22:46:16.653Z,1.33
2023-02-11T22:51:22.662Z,1.43
2023-02-11T22:56:53.554Z,1.48
2023-02-11T23:01:57.422Z,1.30
2023-02-11T23:07:01.109Z,0.90
2023-02-11T23:12:06.868Z,1.33
2023-02-11T23:17:10.552Z,0.95
2023-02-11T23:22:14.177Z,1.30
2023-02-11T23:27:19.452Z,1.17
2023-02-11T23:32:23.233Z,1.33
2023-02-11T23:37:26.942Z,0.90
2023-02-11T23:42:32.254Z,1.10
2023-02-11T23:47:36.239Z,1.10
2023-02-11T23:52:39.904Z,1.20
2023-02-11T23:57:45.214Z,1.60
